Time;durP1;ratioP1;P1;durP2;ratioP2;P2;SDS_P1;SDS_P2;PMS_P1;PMS_P2;Temp;Humidity;BMP_temperature;BMP_pressure;BME280_temperature;BME280_humidity;BME280_pressure;Samples;Min_cycle;Max_cycle;Signal;HPM_P1;HPM_P2
2023/06/27 00:02:02;;;;;;;9.52;3.20;;;;;;;18.89;100.00;102100.25;5047114;28;20033;-63
2023/06/27 00:04:28;;;;;;;7.47;2.70;;;;;;;18.80;100.00;102098.03;5035249;28;20021;-61
2023/06/27 00:06:53;;;;;;;10.95;3.28;;;;;;;18.64;100.00;102096.13;5045025;28;20097;-64
2023/06/27 00:09:19;;;;;;;17.08;3.13;;;;;;;18.66;100.00;102085.38;5047741;28;20029;-62
2023/06/27 00:11:44;;;;;;;10.85;3.03;;;;;;;18.73;100.00;102094.81;5047159;28;20029;-62
2023/06/27 00:14:10;;;;;;;8.55;2.80;;;;;;;18.71;100.00;102087.78;5045348;28;20055;-61
2023/06/27 00:16:36;;;;;;;11.27;3.22;;;;;;;18.72;100.00;102092.22;5046382;28;20036;-61
2023/06/27 00:19:04;;;;;;;13.30;3.35;;;;;;;18.71;100.00;102093.13;5045416;28;20032;-62
2023/06/27 00:21:35;;;;;;;9.95;2.88;;;;;;;18.69;100.00;102094.09;5047794;28;20108;-63
2023/06/27 00:24:01;;;;;;;7.00;2.55;;;;;;;18.72;100.00;102090.41;5046832;28;20017;-62
2023/06/27 00:26:27;;;;;;;12.45;3.38;;;;;;;18.78;100.00;102097.25;5045911;28;20052;-61
2023/06/27 00:28:53;;;;;;;19.10;4.07;;;;;;;18.77;100.00;102100.84;5044407;28;20036;-61
2023/06/27 00:31:19;;;;;;;7.75;2.45;;;;;;;18.74;100.00;102093.88;5027256;28;20033;-62
2023/06/27 00:33:45;;;;;;;10.07;2.60;;;;;;;18.66;100.00;102096.91;5047497;28;20477;-62
2023/06/27 00:36:10;;;;;;;12.77;3.10;;;;;;;18.57;100.00;102094.66;5047475;28;20021;-62
2023/06/27 00:38:35;;;;;;;11.70;2.80;;;;;;;18.53;100.00;102099.31;5049278;28;20115;-63
2023/06/27 00:41:01;;;;;;;7.72;2.92;;;;;;;18.50;100.00;102099.44;5050821;28;20033;-62
2023/06/27 00:43:29;;;;;;;10.88;3.20;;;;;;;18.50;100.00;102098.56;5050312;28;20116;-62
2023/06/27 00:45:55;;;;;;;7.18;2.78;;;;;;;18.49;100.00;102092.38;5048401;28;20418;-60
2023/06/27 00:48:21;;;;;;;12.60;3.20;;;;;;;18.46;100.00;102092.53;5050081;28;20041;-64
2023/06/27 00:50:48;;;;;;;11.80;2.95;;;;;;;18.41;100.00;102089.22;5032479;28;20466;-62
2023/06/27 00:53:14;;;;;;;16.75;3.20;;;;;;;18.44;100.00;102091.72;5048689;28;20060;-61
2023/06/27 00:55:41;;;;;;;13.38;3.25;;;;;;;18.50;100.00;102093.22;5049855;28;20501;-61
2023/06/27 00:58:07;;;;;;;16.70;3.80;;;;;;;18.51;100.00;102095.84;5031958;28;20029;-61
2023/06/27 01:00:32;;;;;;;15.18;3.35;;;;;;;18.59;100.00;102092.81;5048917;28;20029;-62
2023/06/27 01:02:58;;;;;;;10.43;3.40;;;;;;;18.59;100.00;102091.94;5049090;28;20025;-61
2023/06/27 01:05:24;;;;;;;11.30;3.05;;;;;;;18.61;100.00;102096.28;5049360;28;20513;-63
2023/06/27 01:07:56;;;;;;;9.68;2.92;;;;;;;18.57;100.00;102100.00;5049476;28;20082;-59
2023/06/27 01:10:48;;;;;;;8.73;2.70;;;;;;;18.51;100.00;102093.16;5031935;28;20056;-60
2023/06/27 01:13:41;;;;;;;15.82;2.55;;;;;;;18.46;100.00;102100.53;5030690;28;20476;-60
2023/06/27 01:16:08;;;;;;;15.00;3.17;;;;;;;18.40;100.00;102098.16;5042122;28;20041;-60
2023/06/27 01:18:37;;;;;;;13.02;3.28;;;;;;;18.36;100.00;102101.91;5030396;28;20025;-60
2023/06/27 01:21:02;;;;;;;11.52;2.88;;;;;;;18.39;100.00;102099.09;5031424;28;20082;-61
2023/06/27 01:23:34;;;;;;;16.15;3.90;;;;;;;18.44;100.00;102094.41;5128567;23;20716;-62
2023/06/27 01:26:07;;;;;;;12.65;3.45;;;;;;;18.44;100.00;102100.59;5066808;28;20050;-62
2023/06/27 01:28:32;;;;;;;17.02;3.47;;;;;;;18.47;100.00;102098.72;5069792;28;20036;-61
2023/06/27 01:31:01;;;;;;;9.63;3.03;;;;;;;18.45;100.00;102093.44;5068782;28;20027;-63
2023/06/27 01:33:51;;;;;;;17.67;4.22;;;;;;;18.44;100.00;102084.59;5068345;28;20025;-62
2023/06/27 01:36:21;;;;;;;13.82;3.15;;;;;;;18.48;100.00;102084.47;5067852;28;20021;-62
2023/06/27 01:39:07;;;;;;;11.98;3.15;;;;;;;18.48;100.00;102095.97;5069873;28;20380;-61
2023/06/27 01:41:37;;;;;;;12.40;3.50;;;;;;;18.49;100.00;102088.84;5066362;28;20062;-61
2023/06/27 01:44:03;;;;;;;8.32;2.92;;;;;;;18.48;100.00;102093.31;5068026;28;20032;-61
2023/06/27 01:46:29;;;;;;;20.63;3.55;;;;;;;18.44;100.00;102087.28;5066972;28;20614;-61
2023/06/27 01:48:55;;;;;;;14.80;2.88;;;;;;;18.50;100.00;102096.78;5066724;28;20028;-62
2023/06/27 01:51:21;;;;;;;9.38;3.00;;;;;;;18.50;100.00;102093.22;5068302;28;20020;-63
2023/06/27 01:53:46;;;;;;;12.25;3.30;;;;;;;18.53;100.00;102093.97;5068268;28;20487;-62
2023/06/27 01:56:12;;;;;;;10.45;3.10;;;;;;;18.54;100.00;102092.16;5068216;28;20035;-62
2023/06/27 01:58:38;;;;;;;11.02;3.05;;;;;;;18.48;100.00;102095.13;5068025;28;20036;-61
2023/06/27 02:01:04;;;;;;;11.40;3.50;;;;;;;18.44;100.00;102089.94;5068067;28;20029;-61
2023/06/27 02:03:29;;;;;;;16.60;3.35;;;;;;;18.40;100.00;102093.69;5067080;28;20025;-61
2023/06/27 02:05:54;;;;;;;12.55;3.22;;;;;;;18.42;100.00;102086.47;5068301;28;20545;-62
2023/06/27 02:08:20;;;;;;;12.52;3.22;;;;;;;18.44;100.00;102089.06;5069214;28;20031;-62
2023/06/27 02:10:45;;;;;;;15.15;3.50;;;;;;;18.54;100.00;102089.47;5068288;28;20602;-61
2023/06/27 02:13:11;;;;;;;11.48;3.03;;;;;;;18.57;100.00;102089.34;5066915;28;20029;-61
2023/06/27 02:15:36;;;;;;;13.73;3.05;;;;;;;18.60;100.00;102086.50;5068571;28;20656;-61
2023/06/27 02:18:04;;;;;;;9.65;2.85;;;;;;;18.64;100.00;102079.25;5066788;28;20111;-60
2023/06/27 02:20:29;;;;;;;12.20;3.00;;;;;;;18.61;100.00;102072.25;5067674;28;20028;-61
2023/06/27 02:22:55;;;;;;;11.43;3.13;;;;;;;18.64;100.00;102064.09;5066211;28;20052;-61
2023/06/27 02:25:20;;;;;;;11.95;3.40;;;;;;;18.63;100.00;102062.34;5066804;28;20041;-62
2023/06/27 02:27:46;;;;;;;14.20;3.38;;;;;;;18.60;100.00;102065.16;5069227;28;20472;-62
2023/06/27 02:30:12;;;;;;;10.30;3.50;;;;;;;18.53;100.00;102058.41;5066317;28;20112;-61
2023/06/27 02:32:37;;;;;;;19.30;3.85;;;;;;;18.49;100.00;102055.03;5066202;28;20074;-61
2023/06/27 02:35:02;;;;;;;10.98;3.03;;;;;;;18.43;100.00;102055.31;5068702;28;20035;-61
2023/06/27 02:37:28;;;;;;;11.57;3.33;;;;;;;18.34;100.00;102055.75;5067827;28;20104;-61
2023/06/27 02:39:54;;;;;;;10.73;3.30;;;;;;;18.27;100.00;102057.84;5066053;28;20507;-61
2023/06/27 02:42:20;;;;;;;14.00;3.75;;;;;;;18.23;100.00;102072.25;5068709;28;20037;-60
2023/06/27 02:44:45;;;;;;;11.40;3.15;;;;;;;18.18;100.00;102068.00;5068016;28;20825;-61
2023/06/27 02:47:10;;;;;;;13.23;3.88;;;;;;;18.13;100.00;102067.38;5065918;28;20602;-61
2023/06/27 02:49:36;;;;;;;17.30;4.20;;;;;;;18.03;100.00;102061.56;5068445;28;20035;-61
2023/06/27 02:52:01;;;;;;;14.00;4.18;;;;;;;17.98;100.00;102065.38;5067073;28;20035;-61
2023/06/27 02:54:26;;;;;;;17.92;3.92;;;;;;;17.88;100.00;102070.28;5082080;28;20048;-62
2023/06/27 02:56:52;;;;;;;11.13;3.47;;;;;;;17.80;100.00;102073.28;5068032;28;20032;-62
2023/06/27 02:59:17;;;;;;;14.68;4.30;;;;;;;17.72;100.00;102083.41;5068068;28;20460;-62
2023/06/27 03:01:43;;;;;;;10.63;3.50;;;;;;;17.71;100.00;102077.22;5064302;28;20097;-62
2023/06/27 03:04:11;;;;;;;20.20;4.03;;;;;;;17.74;100.00;102081.53;5067853;28;20032;-62
2023/06/27 03:06:36;;;;;;;11.48;3.53;;;;;;;17.74;100.00;102078.88;5067035;28;20032;-62
2023/06/27 03:09:02;;;;;;;17.20;3.50;;;;;;;17.83;100.00;102081.13;5066408;28;20031;-61
2023/06/27 03:11:27;;;;;;;15.52;3.72;;;;;;;17.79;100.00;102076.88;5066903;28;20025;-60
2023/06/27 03:13:53;;;;;;;13.02;3.72;;;;;;;17.85;100.00;102081.91;5068473;28;20025;-61
2023/06/27 03:16:18;;;;;;;15.60;3.88;;;;;;;17.91;100.00;102086.97;5067089;28;20063;-61
2023/06/27 03:18:43;;;;;;;16.83;3.78;;;;;;;17.92;100.00;102085.19;5066656;28;20021;-61
2023/06/27 03:21:09;;;;;;;14.73;3.60;;;;;;;17.99;100.00;102083.09;5067865;28;20037;-61
2023/06/27 03:23:34;;;;;;;14.73;3.65;;;;;;;18.02;100.00;102094.50;5013829;28;20046;-63
2023/06/27 03:25:59;;;;;;;16.55;3.95;;;;;;;17.94;100.00;102085.97;4983858;28;20030;-60
2023/06/27 03:28:25;;;;;;;17.60;3.40;;;;;;;17.95;100.00;102079.72;4985803;28;20075;-60
2023/06/27 03:30:51;;;;;;;16.58;4.78;;;;;;;17.98;100.00;102081.38;5050634;28;20026;-63
2023/06/27 03:33:16;;;;;;;17.70;4.30;;;;;;;17.92;100.00;102078.06;4984308;28;20034;-62
2023/06/27 03:35:41;;;;;;;13.15;3.65;;;;;;;17.91;100.00;102092.31;4985265;28;20067;-61
2023/06/27 03:38:07;;;;;;;15.85;4.53;;;;;;;17.99;100.00;102083.09;4984919;28;20068;-61
2023/06/27 03:40:32;;;;;;;13.70;3.83;;;;;;;17.97;100.00;102090.31;4984850;28;20086;-62
2023/06/27 03:42:57;;;;;;;15.60;4.78;;;;;;;17.92;100.00;102078.06;4985230;28;20018;-63
2023/06/27 03:45:23;;;;;;;23.25;4.20;;;;;;;17.94;100.00;102081.50;4984754;28;20037;-62
2023/06/27 03:47:49;;;;;;;15.43;4.47;;;;;;;17.97;100.00;102079.66;4984369;28;20536;-62
2023/06/27 03:50:14;;;;;;;18.55;4.65;;;;;;;17.97;100.00;102090.31;4985716;28;20068;-62
2023/06/27 03:52:39;;;;;;;16.73;4.30;;;;;;;17.98;100.00;102079.59;4985410;28;20042;-61
2023/06/27 03:55:06;;;;;;;13.32;4.32;;;;;;;17.94;100.00;102086.84;4989264;28;20071;-62
2023/06/27 03:57:31;;;;;;;15.65;4.32;;;;;;;17.98;100.00;102092.91;5052419;28;20037;-62
2023/06/27 03:59:56;;;;;;;15.65;3.97;;;;;;;17.99;100.00;102081.31;5052106;28;20022;-62
2023/06/27 04:02:22;;;;;;;14.25;4.15;;;;;;;17.98;100.00;102087.59;5051177;28;20031;-61
2023/06/27 04:04:47;;;;;;;15.95;4.82;;;;;;;17.99;100.00;102088.41;4985467;28;20378;-62
2023/06/27 04:07:14;;;;;;;18.70;4.55;;;;;;;18.01;100.00;102102.56;4983312;28;20030;-60
2023/06/27 04:09:40;;;;;;;21.15;5.15;;;;;;;18.01;100.00;102097.22;4993751;28;20545;-63
2023/06/27 04:12:05;;;;;;;15.45;4.30;;;;;;;18.03;100.00;102096.22;4993857;28;20059;-62
2023/06/27 04:14:31;;;;;;;19.98;4.43;;;;;;;18.00;100.00;102098.19;4995574;28;20084;-62
2023/06/27 04:16:56;;;;;;;16.08;4.35;;;;;;;18.04;100.00;102092.63;4988180;28;20103;-61
2023/06/27 04:19:21;;;;;;;20.33;5.03;;;;;;;18.02;100.00;102094.50;4988999;28;20113;-61
2023/06/27 04:21:47;;;;;;;14.50;3.85;;;;;;;18.04;100.00;102097.97;4989292;28;20385;-63
2023/06/27 04:24:12;;;;;;;14.52;4.18;;;;;;;17.98;100.00;102087.59;4988398;28;20413;-61
2023/06/27 04:26:38;;;;;;;13.98;4.03;;;;;;;18.01;100.00;102098.09;4988854;28;20026;-62
2023/06/27 04:29:04;;;;;;;13.63;3.65;;;;;;;18.00;100.00;102101.69;4987516;28;20025;-60
2023/06/27 04:31:29;;;;;;;11.98;3.75;;;;;;;17.99;100.00;102099.97;4987222;28;20041;-61
2023/06/27 04:33:59;;;;;;;12.43;4.00;;;;;;;17.95;100.00;102103.72;4987914;28;20023;-62
2023/06/27 04:36:28;;;;;;;14.13;4.00;;;;;;;17.96;100.00;102107.22;4987944;28;20038;-60
2023/06/27 04:38:53;;;;;;;12.45;3.55;;;;;;;17.90;100.00;102103.91;4984954;28;20556;-62
2023/06/27 04:41:19;;;;;;;14.00;3.67;;;;;;;17.92;100.00;102098.53;4983716;28;20026;-62
2023/06/27 04:43:44;;;;;;;20.85;4.60;;;;;;;17.86;100.00;102117.44;4988326;28;20052;-62
2023/06/27 04:46:10;;;;;;;17.58;4.47;;;;;;;17.88;100.00;102112.94;4987503;28;20068;-61
2023/06/27 04:48:35;;;;;;;13.68;3.90;;;;;;;17.89;100.00;102106.66;4988680;28;20390;-61
2023/06/27 04:51:01;;;;;;;17.92;4.15;;;;;;;17.84;100.00;102111.31;4987837;28;20030;-61
2023/06/27 04:53:26;;;;;;;11.98;3.90;;;;;;;17.92;100.00;102112.72;5031811;28;20467;-63
2023/06/27 04:55:53;;;;;;;16.20;4.50;;;;;;;17.96;100.00;102109.91;4985779;28;20037;-62
2023/06/27 04:58:19;;;;;;;16.60;4.18;;;;;;;17.96;100.00;102115.22;5008453;28;20029;-62
2023/06/27 05:00:47;;;;;;;16.83;4.05;;;;;;;18.01;100.00;102105.22;5001665;28;20505;-63
2023/06/27 05:03:13;;;;;;;20.52;5.13;;;;;;;17.99;100.00;102104.44;4987444;28;20030;-61
2023/06/27 05:05:38;;;;;;;16.42;4.13;;;;;;;18.07;100.00;102110.28;4983824;28;20061;-61
2023/06/27 05:08:04;;;;;;;18.40;4.47;;;;;;;18.12;100.00;102105.63;4968524;28;20618;-62
2023/06/27 05:10:30;;;;;;;17.10;4.22;;;;;;;18.21;100.00;102103.50;4966846;28;20117;-63
2023/06/27 05:13:00;;;;;;;14.15;4.32;;;;;;;18.33;100.00;102110.06;4987942;28;20034;-63
2023/06/27 05:15:25;;;;;;;17.95;4.43;;;;;;;18.36;100.00;102101.91;4987041;28;20045;-67
2023/06/27 05:18:16;;;;;;;15.80;4.53;;;;;;;18.56;100.00;102114.28;4986784;28;20030;-65
2023/06/27 05:20:42;;;;;;;14.05;4.28;;;;;;;18.64;100.00;102106.81;4987270;28;20041;-65
2023/06/27 05:23:08;;;;;;;19.48;4.53;;;;;;;18.83;100.00;102108.56;5066493;28;20040;-65
2023/06/27 05:25:33;;;;;;;15.63;4.07;;;;;;;18.99;100.00;102110.50;5068862;28;20530;-66
2023/06/27 05:27:59;;;;;;;13.68;3.65;;;;;;;19.12;100.00;102105.44;5068306;28;20123;-66
2023/06/27 05:30:26;;;;;;;20.25;4.68;;;;;;;19.21;100.00;102112.13;5066914;28;20145;-67
2023/06/27 05:32:51;;;;;;;15.30;3.97;;;;;;;19.24;100.00;102114.63;5065410;28;20028;-67
2023/06/27 05:35:17;;;;;;;11.82;3.92;;;;;;;19.35;100.00;102114.94;5069479;28;20118;-60
2023/06/27 05:37:42;;;;;;;12.55;3.63;;;;;;;19.38;100.00;102117.47;5067844;28;20025;-62
2023/06/27 05:40:09;;;;;;;14.13;4.32;;;;;;;19.39;100.00;102124.53;5067268;28;20400;-61
2023/06/27 05:42:35;;;;;;;14.52;3.85;;;;;;;19.39;100.00;102126.34;5067295;28;20032;-62
2023/06/27 05:45:00;;;;;;;13.23;3.63;;;;;;;19.43;100.00;102119.91;5068793;28;20026;-61
2023/06/27 05:47:26;;;;;;;12.02;3.85;;;;;;;19.43;100.00;102114.56;5065446;28;20324;-61
2023/06/27 05:49:52;;;;;;;12.93;4.05;;;;;;;19.55;100.00;102108.59;5067511;28;20025;-62
2023/06/27 05:52:17;;;;;;;14.57;3.80;;;;;;;19.59;100.00;102117.28;5066946;28;20157;-61
2023/06/27 05:54:43;;;;;;;10.15;2.83;;;;;;;19.66;100.00;102109.84;5068723;28;20032;-62
2023/06/27 05:57:08;;;;;;;11.68;3.17;;;;;;;19.72;100.00;102113.97;5065803;28;20047;-62
2023/06/27 05:59:33;;;;;;;10.15;2.30;;;;;;;19.74;100.00;102112.09;5068583;28;20042;-63
2023/06/27 06:01:59;;;;;;;6.43;2.28;;;;;;;19.80;100.00;102112.63;5066413;28;20027;-63
2023/06/27 06:04:24;;;;;;;7.63;1.88;;;;;;;19.82;100.00;102123.25;5066351;28;20067;-63
2023/06/27 06:06:49;;;;;;;6.20;1.80;;;;;;;19.89;100.00;102135.34;5067236;28;20051;-61
2023/06/27 06:09:15;;;;;;;8.23;1.70;;;;;;;19.89;100.00;102130.00;5066865;28;20034;-61
2023/06/27 06:11:40;;;;;;;6.28;2.00;;;;;;;19.81;100.00;102130.41;5066148;28;20606;-61
2023/06/27 06:14:06;;;;;;;4.45;1.30;;;;;;;19.93;100.00;102136.91;5065610;28;20031;-64
2023/06/27 06:16:32;;;;;;;5.93;1.77;;;;;;;19.95;100.00;102136.81;5060750;28;20039;-62
2023/06/27 06:18:58;;;;;;;3.10;1.30;;;;;;;19.99;100.00;102133.06;5064228;28;20369;-62
2023/06/27 06:21:23;;;;;;;7.30;1.80;;;;;;;20.06;100.00;102122.91;5067664;28;20024;-60
2023/06/27 06:23:49;;;;;;;8.35;2.00;;;;;;;20.08;100.00;102134.41;5065835;28;20051;-59
2023/06/27 06:26:14;;;;;;;7.47;1.58;;;;;;;20.17;100.00;102131.22;5088301;28;20032;-61
2023/06/27 06:28:40;;;;;;;4.88;1.70;;;;;;;20.24;100.00;102133.56;5038255;28;20046;-63
2023/06/27 06:31:05;;;;;;;4.20;1.20;;;;;;;20.22;100.00;102132.78;4984989;28;20105;-62
2023/06/27 06:33:31;;;;;;;3.90;1.20;;;;;;;20.38;100.00;102139.00;4981806;28;20037;-62
2023/06/27 06:35:57;;;;;;;9.63;1.50;;;;;;;20.50;100.00;102141.97;4984461;28;20359;-61
2023/06/27 06:38:23;;;;;;;36.92;3.80;;;;;;;20.69;100.00;102134.63;4983444;28;20026;-63
2023/06/27 06:40:48;;;;;;;4.18;1.30;;;;;;;20.92;97.93;102140.50;5053216;28;20414;-62
2023/06/27 06:43:14;;;;;;;20.00;2.80;;;;;;;21.08;97.34;102136.94;4985778;28;20044;-62
2023/06/27 06:45:39;;;;;;;18.58;2.90;;;;;;;21.30;96.33;102141.91;4984283;28;20061;-61
2023/06/27 06:48:05;;;;;;;4.03;1.42;;;;;;;21.44;95.91;102159.88;5051611;28;20129;-64
2023/06/27 06:50:32;;;;;;;6.22;1.55;;;;;;;21.45;92.35;102153.53;4984374;28;20034;-62
2023/06/27 06:52:57;;;;;;;5.18;1.58;;;;;;;21.52;92.22;102156.72;4985066;28;20037;-63
2023/06/27 06:55:23;;;;;;;6.45;1.30;;;;;;;21.61;91.26;102160.66;4983924;28;20124;-64
2023/06/27 06:57:48;;;;;;;4.18;1.50;;;;;;;21.70;90.36;102149.38;4985855;28;20048;-62
2023/06/27 07:00:14;;;;;;;8.30;1.60;;;;;;;21.78;90.40;102158.81;4984170;28;20038;-61
2023/06/27 07:02:40;;;;;;;4.40;1.50;;;;;;;21.88;87.89;102148.38;4986091;28;20022;-62
2023/06/27 07:05:06;;;;;;;6.80;1.20;;;;;;;21.99;87.81;102156.63;4984331;28;20026;-62
2023/06/27 07:07:32;;;;;;;7.50;1.38;;;;;;;22.03;86.76;102146.56;4985943;28;20117;-63
2023/06/27 07:09:57;;;;;;;9.02;1.30;;;;;;;22.27;84.39;102154.03;5051676;28;20106;-64
2023/06/27 07:12:23;;;;;;;5.30;1.33;;;;;;;22.29;84.51;102141.38;4986075;28;20397;-63
2023/06/27 07:14:49;;;;;;;5.47;1.10;;;;;;;22.42;82.33;102161.09;4984186;28;20724;-63
2023/06/27 07:17:14;;;;;;;3.00;1.38;;;;;;;22.57;82.44;102148.56;4983871;28;20122;-63
2023/06/27 07:19:42;;;;;;;6.75;1.52;;;;;;;22.62;81.21;102148.25;4984634;28;20440;-63
2023/06/27 07:22:07;;;;;;;8.48;1.40;;;;;;;22.70;79.73;102151.28;4985433;28;20516;-61
2023/06/27 07:24:33;;;;;;;5.05;1.05;;;;;;;22.66;78.54;102144.41;4983931;28;20030;-64
2023/06/27 07:26:58;;;;;;;6.28;1.63;;;;;;;22.77;75.85;102154.47;4985672;28;20052;-63
2023/06/27 07:29:23;;;;;;;3.88;1.20;;;;;;;22.69;73.95;102152.28;4985207;28;20460;-63
2023/06/27 07:31:49;;;;;;;3.35;1.10;;;;;;;22.63;73.11;102151.81;4984225;28;20037;-62
2023/06/27 07:34:16;;;;;;;2.35;0.90;;;;;;;22.76;71.83;102162.63;4984785;28;20117;-63
2023/06/27 07:36:42;;;;;;;4.32;1.23;;;;;;;22.67;71.38;102156.03;4997660;28;20030;-64
2023/06/27 07:39:07;;;;;;;3.80;1.00;;;;;;;22.79;71.01;102157.06;4984796;28;20064;-62
2023/06/27 07:41:32;;;;;;;5.43;1.48;;;;;;;22.83;69.85;102154.06;4984257;28;20031;-62
2023/06/27 07:43:58;;;;;;;2.42;0.98;;;;;;;22.68;69.32;102155.06;4984867;28;20022;-63
2023/06/27 07:46:23;;;;;;;3.80;0.95;;;;;;;22.83;68.46;102154.06;4982462;28;20030;-64
2023/06/27 07:48:49;;;;;;;5.05;1.25;;;;;;;22.96;69.43;102150.53;4985198;28;20433;-63
2023/06/27 07:51:14;;;;;;;7.95;1.30;;;;;;;22.95;69.54;102147.00;5068098;28;20336;-62
2023/06/27 07:53:39;;;;;;;6.07;1.63;;;;;;;22.96;69.91;102146.03;4984378;28;20113;-63
2023/06/27 07:56:05;;;;;;;5.00;1.20;;;;;;;22.87;70.29;102154.72;4984772;28;20023;-63
2023/06/27 07:58:30;;;;;;;3.97;1.35;;;;;;;22.74;69.70;102149.28;4984529;28;20363;-62
2023/06/27 08:00:55;;;;;;;4.38;1.20;;;;;;;22.76;70.29;102152.75;4983235;28;20111;-62
2023/06/27 08:03:21;;;;;;;4.35;1.15;;;;;;;22.97;70.31;102161.19;4984321;28;20117;-63
2023/06/27 08:05:46;;;;;;;4.75;1.15;;;;;;;22.88;70.14;102161.81;4984429;28;20034;-62
2023/06/27 08:08:11;;;;;;;5.32;1.67;;;;;;;22.78;71.62;102161.56;4985023;28;20109;-63
2023/06/27 08:10:37;;;;;;;6.28;1.88;;;;;;;22.77;73.10;102161.66;4984001;28;20032;-62
2023/06/27 08:13:02;;;;;;;3.45;1.10;;;;;;;22.84;72.81;102162.97;4985092;28;20518;-62
2023/06/27 08:15:27;;;;;;;8.98;1.27;;;;;;;22.78;72.71;102166.09;4983633;28;20038;-61
2023/06/27 08:17:53;;;;;;;7.03;1.75;;;;;;;22.83;73.57;102161.25;4984654;28;20026;-63
2023/06/27 08:20:18;;;;;;;4.78;0.98;;;;;;;22.86;74.33;102155.69;4984718;28;20493;-62
2023/06/27 08:22:44;;;;;;;12.95;1.63;;;;;;;22.91;73.65;102156.22;4983036;28;20043;-62
2023/06/27 08:25:10;;;;;;;4.88;1.58;;;;;;;22.89;72.37;102158.16;4984475;28;20518;-62
2023/06/27 08:27:35;;;;;;;10.23;1.40;;;;;;;22.74;70.34;102159.16;4983694;28;20038;-61
2023/06/27 08:30:00;;;;;;;2.70;1.30;;;;;;;22.76;70.80;102168.88;4983589;28;20015;-63
2023/06/27 08:32:26;;;;;;;3.83;1.27;;;;;;;22.71;69.04;102161.09;4983643;28;20035;-62
2023/06/27 08:34:51;;;;;;;2.55;0.95;;;;;;;22.75;68.47;102164.44;4984363;28;20023;-64
2023/06/27 08:37:17;;;;;;;5.47;1.30;;;;;;;22.79;68.24;102157.06;4983716;28;20092;-62
2023/06/27 08:39:42;;;;;;;5.18;1.30;;;;;;;22.74;68.06;102165.41;4984878;28;20023;-64
2023/06/27 08:42:08;;;;;;;7.10;1.20;;;;;;;22.73;68.54;102163.69;4983295;28;20114;-63
2023/06/27 08:44:33;;;;;;;4.93;1.45;;;;;;;22.59;69.27;102164.56;5051874;28;20054;-63
2023/06/27 08:47:03;;;;;;;4.80;1.25;;;;;;;22.63;68.79;102160.72;4983153;28;20069;-63
2023/06/27 08:49:31;;;;;;;4.60;1.33;;;;;;;22.82;68.11;102162.22;4980330;28;20053;-63
2023/06/27 08:51:57;;;;;;;4.13;1.38;;;;;;;22.56;71.77;102162.06;5051162;28;20022;-63
2023/06/27 08:54:27;;;;;;;5.65;1.30;;;;;;;22.86;70.17;102158.38;4984504;28;20103;-62
2023/06/27 08:56:53;;;;;;;2.78;1.08;;;;;;;22.87;71.10;102170.00;4980979;28;20019;-61
2023/06/27 08:59:22;;;;;;;3.78;1.20;;;;;;;22.92;71.24;102168.72;4986828;28;20049;-62
2023/06/27 09:01:48;;;;;;;;;;;;;;;23.24;68.66;102162.16;5054618;28;20029;-62
2023/06/27 09:04:13;;;;;;;4.18;1.25;;;;;;;23.22;68.58;102175.72;5053832;28;19914;-64
2023/06/27 09:06:40;;;;;;;5.28;1.08;;;;;;;23.20;68.35;102164.19;4987557;28;20067;-62
2023/06/27 09:09:05;;;;;;;3.67;1.40;;;;;;;23.25;69.64;102163.88;4986395;28;20030;-64
2023/06/27 09:11:31;;;;;;;4.13;1.10;;;;;;;23.35;68.57;102158.72;4987298;28;20067;-64
2023/06/27 09:13:56;;;;;;;4.07;1.40;;;;;;;23.37;68.07;102164.03;5053603;28;20026;-62
2023/06/27 09:16:22;;;;;;;1.67;0.95;;;;;;;23.52;67.41;102170.19;4986339;28;20019;-63
2023/06/27 09:18:47;;;;;;;3.95;1.13;;;;;;;23.47;70.12;102171.38;4986995;28;20037;-62
2023/06/27 09:21:13;;;;;;;7.32;1.20;;;;;;;23.74;70.63;102174.97;4987363;28;20049;-62
2023/06/27 09:23:39;;;;;;;4.20;1.30;;;;;;;23.68;68.44;102181.63;4983912;28;20133;-64
2023/06/27 09:26:08;;;;;;;4.38;1.40;;;;;;;23.90;68.05;102172.06;5053722;28;20026;-63
2023/06/27 09:29:03;;;;;;;5.10;1.38;;;;;;;23.89;67.36;102177.53;4985277;28;20470;-62
2023/06/27 09:31:30;;;;;;;5.78;1.70;;;;;;;23.76;67.30;102174.84;4990691;28;20069;-66
2023/06/27 09:34:06;;;;;;;3.95;1.10;;;;;;;23.53;67.49;102163.84;4983821;28;20058;-64
2023/06/27 09:36:33;;;;;;;3.08;1.00;;;;;;;23.48;67.24;102162.34;4987223;28;20513;-63
2023/06/27 09:39:05;;;;;;;5.18;1.23;;;;;;;23.54;67.54;102166.44;4984879;28;20044;-61
2023/06/27 09:41:45;;;;;;;4.47;1.00;;;;;;;23.66;67.40;102156.66;4983523;28;20362;-58
2023/06/27 09:44:21;;;;;;;3.22;1.20;;;;;;;23.68;68.53;102167.31;4983540;28;20046;-63
2023/06/27 09:46:47;;;;;;;8.57;1.73;;;;;;;24.03;66.94;102163.13;4981120;28;20031;-62
2023/06/27 09:49:14;;;;;;;5.85;1.30;;;;;;;24.08;68.10;102175.28;4985784;28;20035;-62
2023/06/27 09:51:40;;;;;;;6.68;1.48;;;;;;;24.11;66.51;102174.22;4985872;28;20034;-61
2023/06/27 09:54:05;;;;;;;4.88;1.67;;;;;;;24.27;65.80;102176.72;4983029;28;20014;-63
2023/06/27 09:56:32;;;;;;;3.47;1.30;;;;;;;24.09;64.44;102168.06;4985764;28;20061;-59
2023/06/27 09:59:10;;;;;;;7.78;1.50;;;;;;;24.29;65.04;102168.53;4985751;28;20018;-62
2023/06/27 10:01:37;;;;;;;3.50;1.27;;;;;;;24.04;64.78;102172.91;4984700;28;20359;-64
2023/06/27 10:04:03;;;;;;;7.00;1.30;;;;;;;24.20;65.59;102175.44;4984287;28;20535;-62
2023/06/27 10:06:29;;;;;;;3.30;1.05;;;;;;;24.55;62.13;102171.13;4986637;28;20038;-63
2023/06/27 10:08:55;;;;;;;5.25;1.55;;;;;;;24.51;62.26;102185.81;4985055;28;20030;-63
2023/06/27 10:11:21;;;;;;;9.40;1.50;;;;;;;24.56;60.74;102181.81;4985463;28;20045;-64
2023/06/27 10:13:47;;;;;;;4.32;1.50;;;;;;;24.65;59.67;102171.34;5053753;28;20083;-62
2023/06/27 10:16:13;;;;;;;4.45;1.27;;;;;;;24.68;61.34;102171.97;4985291;28;20030;-62
2023/06/27 10:18:38;;;;;;;6.70;1.40;;;;;;;24.73;61.37;102167.09;5053647;28;20034;-63
2023/06/27 10:21:04;;;;;;;4.07;1.30;;;;;;;24.85;60.60;102173.41;4984869;28;20498;-64
2023/06/27 10:23:30;;;;;;;5.07;1.30;;;;;;;25.06;59.25;102169.25;5053168;28;20186;-63
2023/06/27 10:25:57;;;;;;;5.03;1.30;;;;;;;25.28;57.77;102149.59;5063160;28;20038;-62
2023/06/27 10:28:22;;;;;;;2.05;1.17;;;;;;;25.08;54.93;102162.75;5053468;28;20029;-63
2023/06/27 10:30:48;;;;;;;6.35;1.30;;;;;;;25.13;54.07;102159.72;4985244;28;20042;-62
2023/06/27 10:33:20;;;;;;;3.55;1.27;;;;;;;25.03;53.39;102172.19;4985400;28;20030;-63
2023/06/27 10:35:50;;;;;;;5.85;1.40;;;;;;;24.93;53.66;102172.88;4983340;28;20390;-61
2023/06/27 10:38:18;;;;;;;6.10;1.38;;;;;;;25.00;55.58;102170.59;4985811;28;20370;-61
2023/06/27 10:41:04;;;;;;;4.80;1.60;;;;;;;25.24;54.77;102173.28;5049560;28;20034;-61
2023/06/27 10:44:03;;;;;;;7.10;1.33;;;;;;;25.77;52.66;102157.63;4984474;28;20363;-61
2023/06/27 10:46:30;;;;;;;5.63;1.38;;;;;;;25.82;55.17;102173.44;5051385;28;20070;-62
2023/06/27 10:49:00;;;;;;;5.22;1.60;;;;;;;25.76;53.26;102174.78;5050494;28;20026;-62
2023/06/27 10:51:37;;;;;;;4.05;1.23;;;;;;;26.03;52.28;102159.25;5050663;28;20027;-62
2023/06/27 10:54:09;;;;;;;6.30;1.73;;;;;;;25.94;54.22;102177.88;4984837;28;20499;-62
2023/06/27 10:56:39;;;;;;;5.28;1.40;;;;;;;26.11;52.35;102164.88;4983941;28;20069;-61
2023/06/27 10:59:10;;;;;;;4.05;1.00;;;;;;;26.09;50.28;102183.03;4985178;28;20037;-61
2023/06/27 11:01:35;;;;;;;5.05;1.30;;;;;;;25.74;49.51;102172.19;4983222;28;20486;-61
2023/06/27 11:04:25;;;;;;;4.85;1.40;;;;;;;25.53;49.88;102179.25;5068515;28;20037;-60
2023/06/27 11:06:57;;;;;;;3.95;1.35;;;;;;;24.96;50.76;102188.81;4983771;28;20043;-63
2023/06/27 11:09:23;;;;;;;4.72;1.17;;;;;;;25.07;50.57;102190.72;4984834;28;20550;-62
2023/06/27 11:11:56;;;;;;;5.70;1.45;;;;;;;25.28;50.53;102179.28;5027146;28;20028;-62
2023/06/27 11:14:35;;;;;;;6.03;1.30;;;;;;;25.33;51.73;102173.53;5067090;28;20025;-60
2023/06/27 11:17:03;;;;;;;3.97;1.38;;;;;;;25.35;49.37;102167.03;5039425;28;20046;-62